Time;durP1;ratioP1;P1;durP2;ratioP2;P2;SDS_P1;SDS_P2;PMS_P1;PMS_P2;Temp;Humidity;BMP_temperature;BMP_pressure;BME280_temperature;BME280_humidity;BME280_pressure;Samples;Min_cycle;Max_cycle;Signal;HPM_P1;HPM_P2
2023/04/08 00:01:39;;;;;;;8.18;6.25;;;10.50;99.90;;;;;;5053637;28;20033;-75
2023/04/08 00:04:08;;;;;;;8.90;6.28;;;10.50;99.90;;;;;;5055028;28;20033;-75
2023/04/08 00:06:34;;;;;;;8.50;6.68;;;10.40;99.90;;;;;;5054030;28;20036;-74
2023/04/08 00:09:00;;;;;;;10.35;6.50;;;10.30;99.90;;;;;;5054027;28;20044;-75
2023/04/08 00:11:26;;;;;;;10.27;6.80;;;10.30;99.90;;;;;;5055115;28;20029;-74
2023/04/08 00:13:52;;;;;;;12.88;6.88;;;10.30;99.90;;;;;;5054015;28;20036;-74
2023/04/08 00:16:18;;;;;;;7.25;6.40;;;10.20;99.90;;;;;;5054532;28;20033;-75
2023/04/08 00:18:44;;;;;;;13.00;6.43;;;10.10;99.90;;;;;;5053473;28;20028;-74
2023/04/08 00:21:12;;;;;;;8.13;5.97;;;10.10;99.90;;;;;;5053871;28;20037;-75
2023/04/08 00:23:38;;;;;;;7.70;5.70;;;10.00;99.90;;;;;;5053748;28;20025;-74
2023/04/08 00:26:04;;;;;;;11.55;5.85;;;10.00;99.90;;;;;;5054755;28;20029;-74
2023/04/08 00:28:31;;;;;;;6.13;5.38;;;10.00;99.90;;;;;;5054907;28;20029;-75
2023/04/08 00:30:57;;;;;;;8.10;5.70;;;10.10;99.90;;;;;;5053141;28;20029;-74
2023/04/08 00:33:24;;;;;;;6.45;5.70;;;10.20;99.90;;;;;;5054443;28;20025;-75
2023/04/08 00:35:51;;;;;;;9.05;6.20;;;10.30;99.90;;;;;;5053476;28;20028;-75
2023/04/08 00:38:17;;;;;;;6.15;5.43;;;10.20;99.90;;;;;;5053784;28;20025;-74
2023/04/08 00:40:43;;;;;;;7.75;5.72;;;10.20;99.90;;;;;;5053634;28;20490;-74
2023/04/08 00:43:09;;;;;;;7.07;5.80;;;10.20;99.90;;;;;;5053285;28;20033;-75
2023/04/08 00:45:35;;;;;;;7.63;5.88;;;10.20;99.90;;;;;;5032814;28;20399;-74
2023/04/08 00:48:02;;;;;;;7.70;5.70;;;10.30;99.90;;;;;;5033077;28;20037;-74
2023/04/08 00:50:28;;;;;;;10.77;5.72;;;9.90;99.90;;;;;;5021867;28;20040;-74
2023/04/08 00:52:54;;;;;;;9.45;5.35;;;9.80;99.90;;;;;;5033098;28;20053;-75
2023/04/08 00:55:20;;;;;;;8.50;5.00;;;9.80;99.90;;;;;;5034366;28;20033;-74
2023/04/08 00:57:46;;;;;;;6.65;5.22;;;9.70;99.90;;;;;;5034442;28;20033;-74
2023/04/08 01:00:14;;;;;;;7.53;5.05;;;9.80;99.90;;;;;;5032529;28;20046;-74
2023/04/08 01:03:05;;;;;;;8.40;5.10;;;9.80;99.90;;;;;;5015877;28;20052;-74
2023/04/08 01:05:50;;;;;;;7.05;5.20;;;9.70;99.90;;;;;;5033024;28;20316;-74
2023/04/08 01:08:16;;;;;;;8.75;5.50;;;9.70;99.90;;;;;;5034075;28;20500;-74
2023/04/08 01:10:44;;;;;;;8.80;5.32;;;9.60;99.90;;;;;;5032992;28;20034;-73
2023/04/08 01:13:11;;;;;;;7.32;5.57;;;9.60;99.90;;;;;;5032922;28;20037;-75
2023/04/08 01:15:41;;;;;;;8.23;6.28;;;9.70;99.90;;;;;;5032443;28;20388;-74
2023/04/08 01:18:13;;;;;;;7.63;6.07;;;9.70;99.90;;;;;;5032577;28;20025;-74
2023/04/08 01:20:40;;;;;;;9.45;5.97;;;9.70;99.90;;;;;;5032821;28;20052;-74
2023/04/08 01:23:20;;;;;;;9.15;5.80;;;9.70;99.90;;;;;;5032664;28;20036;-74
2023/04/08 01:25:53;;;;;;;7.93;5.68;;;9.70;99.90;;;;;;5033092;28;20502;-74
2023/04/08 01:28:20;;;;;;;9.85;5.55;;;9.70;99.90;;;;;;5052067;28;20029;-74
2023/04/08 01:30:46;;;;;;;9.30;5.38;;;9.50;99.90;;;;;;5051293;28;20025;-74
2023/04/08 01:33:14;;;;;;;9.60;5.53;;;9.50;99.90;;;;;;5052380;28;20031;-75
2023/04/08 01:35:40;;;;;;;11.25;5.32;;;9.40;99.90;;;;;;5035274;28;20051;-75
2023/04/08 01:38:07;;;;;;;11.00;5.43;;;9.30;99.90;;;;;;5053387;28;20044;-74
2023/04/08 01:40:34;;;;;;;7.10;5.43;;;9.30;99.90;;;;;;5052257;28;20036;-74
2023/04/08 01:43:00;;;;;;;8.30;6.00;;;9.30;99.90;;;;;;5052297;28;20029;-74
2023/04/08 01:45:27;;;;;;;7.50;5.70;;;9.20;99.90;;;;;;5028131;28;20057;-74
2023/04/08 01:47:53;;;;;;;8.20;5.90;;;9.20;99.90;;;;;;4996062;28;20034;-74
2023/04/08 01:50:19;;;;;;;11.05;5.88;;;8.90;99.90;;;;;;5002512;28;20041;-74
2023/04/08 01:52:47;;;;;;;9.18;5.63;;;8.70;99.90;;;;;;5015728;28;20054;-74
2023/04/08 01:55:13;;;;;;;7.25;6.07;;;8.50;99.90;;;;;;5015820;28;20037;-74
2023/04/08 01:57:39;;;;;;;8.52;6.18;;;8.40;99.90;;;;;;5015584;28;20037;-74
2023/04/08 02:00:07;;;;;;;10.23;5.80;;;8.50;99.90;;;;;;5014413;28;20046;-75
2023/04/08 02:02:37;;;;;;;9.63;5.75;;;8.40;99.90;;;;;;5029565;28;20033;-74
2023/04/08 02:05:03;;;;;;;8.65;6.20;;;8.60;99.90;;;;;;4997346;28;20041;-74
2023/04/08 02:07:29;;;;;;;10.38;5.75;;;8.60;99.90;;;;;;5032067;28;20035;-75
2023/04/08 02:09:55;;;;;;;8.88;6.00;;;8.60;99.90;;;;;;5028454;28;20037;-75
2023/04/08 02:12:22;;;;;;;8.63;5.68;;;8.60;99.90;;;;;;5031546;28;20026;-75
2023/04/08 02:14:48;;;;;;;9.95;6.07;;;8.60;99.90;;;;;;5013664;28;20040;-75
2023/04/08 02:17:35;;;;;;;7.82;5.47;;;8.60;99.90;;;;;;5031207;28;20468;-75
2023/04/08 02:20:07;;;;;;;7.18;5.95;;;8.50;99.90;;;;;;5031342;28;20045;-75
2023/04/08 02:22:52;;;;;;;6.57;5.60;;;8.40;99.90;;;;;;5030154;28;20033;-75
2023/04/08 02:25:20;;;;;;;6.47;5.10;;;8.30;99.90;;;;;;5030338;28;20041;-75
2023/04/08 02:27:48;;;;;;;10.18;6.00;;;8.20;99.90;;;;;;5013195;28;20045;-75
2023/04/08 02:30:14;;;;;;;10.13;5.85;;;8.20;99.90;;;;;;5012640;28;20085;-74
2023/04/08 02:32:40;;;;;;;8.82;5.63;;;8.20;99.90;;;;;;5013923;28;20029;-75
2023/04/08 02:35:06;;;;;;;6.63;5.82;;;8.20;99.90;;;;;;5013440;28;20436;-75
2023/04/08 02:37:32;;;;;;;7.63;5.40;;;8.10;99.90;;;;;;5030805;28;20029;-74
2023/04/08 02:39:59;;;;;;;7.18;5.50;;;8.10;99.90;;;;;;5031346;28;20507;-74
2023/04/08 02:42:25;;;;;;;9.23;5.82;;;8.00;99.90;;;;;;5014935;28;20025;-74
2023/04/08 02:44:51;;;;;;;8.38;5.60;;;8.00;99.90;;;;;;5031975;28;20041;-74
2023/04/08 02:47:17;;;;;;;8.18;5.55;;;8.00;99.90;;;;;;5032042;28;20029;-74
2023/04/08 02:49:43;;;;;;;6.22;5.63;;;7.90;99.90;;;;;;5030167;28;20026;-74
2023/04/08 02:52:09;;;;;;;8.32;5.80;;;7.80;99.90;;;;;;5012578;28;20409;-74
2023/04/08 02:54:35;;;;;;;7.40;5.50;;;7.70;99.90;;;;;;4995087;28;20025;-75
2023/04/08 02:57:01;;;;;;;7.57;5.80;;;7.70;99.90;;;;;;5012576;28;20042;-74
2023/04/08 02:59:27;;;;;;;10.00;5.50;;;7.60;99.90;;;;;;5010965;28;20041;-74
2023/04/08 03:01:54;;;;;;;9.48;6.07;;;7.60;99.90;;;;;;5011707;28;20034;-74
2023/04/08 03:04:20;;;;;;;9.85;6.10;;;7.50;99.90;;;;;;5011366;28;20037;-74
2023/04/08 03:06:46;;;;;;;10.57;5.68;;;7.50;99.90;;;;;;5012553;28;20404;-74
2023/04/08 03:09:12;;;;;;;13.50;5.53;;;7.50;99.90;;;;;;5011345;28;20030;-74
2023/04/08 03:11:38;;;;;;;9.07;5.50;;;7.40;99.90;;;;;;5011310;28;20041;-74
2023/04/08 03:14:04;;;;;;;9.40;6.35;;;7.40;99.90;;;;;;5012089;28;20037;-74
2023/04/08 03:16:30;;;;;;;9.25;6.30;;;7.30;99.90;;;;;;5010792;28;20428;-74
2023/04/08 03:18:56;;;;;;;9.48;5.93;;;7.30;99.90;;;;;;4994766;28;20033;-74
2023/04/08 03:21:23;;;;;;;7.15;6.30;;;7.30;99.90;;;;;;5012375;28;20499;-74
2023/04/08 03:23:49;;;;;;;7.00;6.30;;;7.30;99.90;;;;;;5012420;28;20018;-74
2023/04/08 03:26:15;;;;;;;9.52;6.15;;;7.30;99.90;;;;;;4999084;28;20037;-74
2023/04/08 03:28:41;;;;;;;9.37;6.37;;;7.40;99.90;;;;;;5031011;28;20052;-74
2023/04/08 03:31:07;;;;;;;9.68;6.45;;;7.40;99.90;;;;;;5031551;28;20032;-74
2023/04/08 03:33:33;;;;;;;7.33;5.60;;;7.40;99.90;;;;;;5030720;28;20025;-74
2023/04/08 03:35:59;;;;;;;9.27;6.60;;;7.50;99.90;;;;;;5031954;28;20026;-74
2023/04/08 03:38:25;;;;;;;8.15;5.80;;;7.40;99.90;;;;;;5031932;28;20040;-74
2023/04/08 03:40:52;;;;;;;6.97;5.70;;;7.40;99.90;;;;;;5031400;28;20048;-74
2023/04/08 03:43:20;;;;;;;6.93;5.80;;;7.40;99.90;;;;;;5029598;28;20380;-74
2023/04/08 03:45:46;;;;;;;13.18;6.38;;;7.40;99.90;;;;;;5010475;28;20034;-74
2023/04/08 03:48:12;;;;;;;9.57;6.38;;;7.40;99.90;;;;;;5012097;28;20392;-74
2023/04/08 03:50:38;;;;;;;8.37;6.50;;;7.60;99.90;;;;;;5021635;28;20025;-74
2023/04/08 03:53:05;;;;;;;7.75;6.43;;;7.50;99.90;;;;;;5030671;28;20491;-74
2023/04/08 03:55:31;;;;;;;9.25;6.28;;;7.40;99.90;;;;;;5030198;28;20037;-74
2023/04/08 03:57:57;;;;;;;8.77;6.40;;;7.40;99.90;;;;;;5030299;28;20346;-74
2023/04/08 04:00:23;;;;;;;8.23;6.40;;;7.40;99.90;;;;;;5029961;28;20045;-74
2023/04/08 04:02:49;;;;;;;7.35;6.20;;;7.30;99.90;;;;;;5029962;28;20037;-74
2023/04/08 04:05:15;;;;;;;9.43;6.85;;;7.30;99.90;;;;;;5014102;28;20033;-75
2023/04/08 04:07:41;;;;;;;10.35;6.38;;;7.20;99.90;;;;;;5031618;28;20033;-74
2023/04/08 04:10:09;;;;;;;12.50;6.67;;;7.20;99.90;;;;;;5030134;28;20018;-74
2023/04/08 04:12:35;;;;;;;8.52;6.50;;;7.10;99.90;;;;;;5031673;28;20021;-74
2023/04/08 04:15:01;;;;;;;12.10;6.25;;;7.00;99.90;;;;;;5034795;28;20194;-74
2023/04/08 04:17:27;;;;;;;9.53;6.57;;;7.00;99.90;;;;;;5033157;28;20029;-74
2023/04/08 04:19:53;;;;;;;9.90;6.87;;;7.00;99.90;;;;;;5035004;28;20498;-74
2023/04/08 04:22:19;;;;;;;9.37;6.50;;;6.90;99.90;;;;;;5035041;28;20026;-74
2023/04/08 04:24:48;;;;;;;12.33;6.83;;;6.90;99.90;;;;;;5033561;28;20025;-74
2023/04/08 04:27:17;;;;;;;10.60;7.73;;;6.90;99.90;;;;;;5033662;28;20475;-74
2023/04/08 04:29:43;;;;;;;7.73;6.57;;;6.90;99.90;;;;;;5034972;28;20021;-74
2023/04/08 04:32:09;;;;;;;10.40;6.60;;;6.90;99.90;;;;;;5050565;28;20372;-74
2023/04/08 04:34:35;;;;;;;10.67;6.70;;;6.90;99.90;;;;;;5054767;28;20033;-74
2023/04/08 04:37:01;;;;;;;11.20;7.38;;;7.00;99.90;;;;;;5054671;28;20490;-74
2023/04/08 04:39:27;;;;;;;10.33;7.60;;;6.90;99.90;;;;;;5054283;28;20029;-74
2023/04/08 04:41:53;;;;;;;8.23;7.28;;;7.10;99.90;;;;;;5054599;28;20489;-74
2023/04/08 04:44:19;;;;;;;10.57;7.20;;;7.20;99.90;;;;;;5043609;28;20017;-74
2023/04/08 04:46:45;;;;;;;10.60;7.97;;;7.40;99.90;;;;;;5032872;28;20029;-74
2023/04/08 04:49:12;;;;;;;13.00;8.18;;;7.50;99.90;;;;;;5034512;28;20037;-74
2023/04/08 04:51:38;;;;;;;10.10;7.45;;;7.50;99.90;;;;;;5052384;28;20056;-74
2023/04/08 04:54:04;;;;;;;10.75;8.50;;;7.60;99.90;;;;;;5054051;28;20025;-74
2023/04/08 04:56:30;;;;;;;13.13;7.80;;;7.60;99.90;;;;;;5036557;28;20040;-74
2023/04/08 04:58:56;;;;;;;13.05;8.50;;;7.50;99.90;;;;;;5053043;28;20395;-74
2023/04/08 05:01:22;;;;;;;11.45;7.63;;;7.60;99.90;;;;;;5052366;28;20048;-74
2023/04/08 05:03:48;;;;;;;12.77;7.55;;;7.60;99.90;;;;;;5053108;28;20037;-74
2023/04/08 05:06:14;;;;;;;14.32;7.75;;;7.70;99.90;;;;;;5054219;28;20040;-74
2023/04/08 05:08:40;;;;;;;11.18;7.50;;;7.80;99.90;;;;;;5053785;28;20456;-74
2023/04/08 05:11:10;;;;;;;11.02;7.78;;;7.90;99.90;;;;;;5036372;28;20040;-74
2023/04/08 05:13:36;;;;;;;9.90;7.28;;;7.80;99.90;;;;;;5019621;28;20043;-74
2023/04/08 05:16:02;;;;;;;11.83;8.30;;;7.80;99.90;;;;;;5053428;28;20051;-74
2023/04/08 05:18:28;;;;;;;10.68;7.50;;;7.90;99.90;;;;;;5053766;28;20418;-74
2023/04/08 05:20:54;;;;;;;10.68;7.60;;;7.70;99.90;;;;;;5052547;28;20045;-74
2023/04/08 05:23:20;;;;;;;9.87;7.70;;;7.50;99.90;;;;;;5035707;28;20025;-74
2023/04/08 05:25:46;;;;;;;11.27;8.00;;;7.60;99.90;;;;;;5052060;28;20395;-74
2023/04/08 05:28:12;;;;;;;11.40;7.53;;;7.70;99.90;;;;;;5053679;28;20036;-74
2023/04/08 05:30:39;;;;;;;12.10;8.25;;;7.80;99.90;;;;;;5053304;28;20495;-74
2023/04/08 05:33:05;;;;;;;13.10;8.43;;;7.80;99.90;;;;;;5052308;28;20036;-74
2023/04/08 05:35:31;;;;;;;12.70;8.50;;;7.80;99.90;;;;;;5053448;28;20037;-74
2023/04/08 05:37:57;;;;;;;12.25;8.90;;;7.40;99.90;;;;;;5053243;28;20466;-74
2023/04/08 05:40:23;;;;;;;10.88;8.40;;;7.30;99.90;;;;;;5051686;28;20052;-74
2023/04/08 05:42:49;;;;;;;14.20;8.43;;;7.20;99.90;;;;;;5053433;28;20025;-74
2023/04/08 05:45:16;;;;;;;14.48;8.57;;;7.10;99.90;;;;;;5034290;28;20036;-74
2023/04/08 05:47:42;;;;;;;13.03;8.47;;;6.90;99.90;;;;;;5015839;28;20025;-74
2023/04/08 05:50:08;;;;;;;12.00;8.75;;;6.90;99.90;;;;;;5037620;28;20033;-74
2023/04/08 05:52:35;;;;;;;14.67;9.67;;;6.80;99.90;;;;;;5052851;28;20067;-74
2023/04/08 05:55:01;;;;;;;12.70;9.30;;;6.80;99.90;;;;;;5053082;28;20471;-74
2023/04/08 05:57:27;;;;;;;13.80;9.45;;;6.70;99.90;;;;;;5051819;28;20040;-74
2023/04/08 05:59:53;;;;;;;13.00;9.10;;;6.70;99.90;;;;;;5051843;28;20025;-74
2023/04/08 06:02:19;;;;;;;14.33;9.40;;;6.70;99.90;;;;;;5052590;28;20048;-74
2023/04/08 06:04:45;;;;;;;14.70;10.23;;;6.70;99.90;;;;;;5052863;28;20021;-74
2023/04/08 06:07:11;;;;;;;15.90;10.00;;;6.70;99.90;;;;;;5052620;28;20460;-74
2023/04/08 06:09:37;;;;;;;14.23;10.03;;;6.60;99.90;;;;;;5052823;28;20025;-74
2023/04/08 06:12:04;;;;;;;14.40;9.80;;;6.70;99.90;;;;;;5034883;28;20483;-74
2023/04/08 06:14:30;;;;;;;14.73;10.70;;;6.70;99.90;;;;;;5018642;28;20399;-74
2023/04/08 06:16:56;;;;;;;13.07;9.63;;;6.80;99.90;;;;;;5051044;28;20040;-74
2023/04/08 06:19:23;;;;;;;13.27;10.43;;;6.90;99.90;;;;;;5051114;28;20475;-74
2023/04/08 06:21:50;;;;;;;13.35;9.38;;;7.10;99.90;;;;;;5052027;28;20056;-74
2023/04/08 06:24:16;;;;;;;13.03;9.57;;;7.20;99.90;;;;;;5052463;28;20036;-74
2023/04/08 06:26:42;;;;;;;11.95;9.35;;;7.30;99.90;;;;;;5034196;28;20041;-74
2023/04/08 06:29:08;;;;;;;11.32;9.55;;;7.40;99.90;;;;;;5052667;28;20025;-74
2023/04/08 06:31:34;;;;;;;13.60;9.18;;;7.50;99.90;;;;;;5052244;28;20037;-74
2023/04/08 06:34:00;;;;;;;12.45;9.82;;;7.60;99.90;;;;;;5052456;28;20034;-74
2023/04/08 06:36:27;;;;;;;12.38;9.18;;;7.70;99.90;;;;;;5051443;28;20029;-74
2023/04/08 06:38:53;;;;;;;14.00;9.27;;;7.90;99.90;;;;;;5034544;28;20041;-75
2023/04/08 06:41:19;;;;;;;17.08;9.40;;;8.00;99.90;;;;;;5052443;28;20043;-75
2023/04/08 06:43:45;;;;;;;14.20;8.90;;;8.20;99.90;;;;;;5045030;28;20026;-74
2023/04/08 06:46:12;;;;;;;12.85;9.45;;;8.30;99.90;;;;;;5032070;28;20420;-75
2023/04/08 06:48:39;;;;;;;12.45;10.00;;;8.40;99.90;;;;;;5031274;28;20029;-75
2023/04/08 06:51:06;;;;;;;12.00;9.10;;;8.50;99.90;;;;;;5044071;28;20049;-75
2023/04/08 06:53:32;;;;;;;17.00;10.25;;;8.60;99.90;;;;;;5052235;28;20029;-74
2023/04/08 06:55:59;;;;;;;12.48;9.25;;;8.70;99.90;;;;;;5051103;28;20025;-74
2023/04/08 06:58:25;;;;;;;14.85;9.27;;;8.80;99.90;;;;;;5050811;28;20037;-75
2023/04/08 07:00:53;;;;;;;15.68;10.00;;;9.10;99.90;;;;;;5051795;28;20501;-74
2023/04/08 07:03:20;;;;;;;11.73;9.80;;;9.20;99.90;;;;;;5051070;28;20037;-75
2023/04/08 07:05:46;;;;;;;12.68;9.60;;;9.30;99.90;;;;;;5050520;28;20387;-75
2023/04/08 07:08:12;;;;;;;14.77;10.40;;;9.40;99.90;;;;;;5034000;28;20041;-75
2023/04/08 07:10:38;;;;;;;14.05;9.98;;;9.50;99.90;;;;;;5050536;28;20033;-75
2023/04/08 07:13:04;;;;;;;16.15;10.65;;;9.60;99.90;;;;;;5050725;28;20029;-74
2023/04/08 07:15:30;;;;;;;16.48;10.70;;;9.70;99.90;;;;;;5050254;28;20026;-74
2023/04/08 07:17:57;;;;;;;13.63;10.30;;;9.80;99.90;;;;;;5050783;28;20036;-75
2023/04/08 07:20:23;;;;;;;13.43;9.50;;;9.90;99.90;;;;;;5051599;28;20040;-75
2023/04/08 07:22:49;;;;;;;13.50;10.35;;;10.00;99.90;;;;;;5052039;28;20383;-75
2023/04/08 07:25:15;;;;;;;15.07;10.00;;;10.20;99.90;;;;;;5051922;28;20032;-75
2023/04/08 07:27:41;;;;;;;12.02;8.75;;;10.40;99.90;;;;;;5051680;28;20548;-74
2023/04/08 07:30:08;;;;;;;12.63;8.88;;;10.20;99.90;;;;;;5051528;28;20025;-74
2023/04/08 07:32:35;;;;;;;16.10;11.07;;;10.20;99.90;;;;;;5033748;28;20037;-75
2023/04/08 07:35:01;;;;;;;11.95;8.10;;;10.30;99.90;;;;;;5051499;28;20463;-75
2023/04/08 07:37:27;;;;;;;16.65;10.18;;;10.50;99.90;;;;;;5033914;28;20037;-75
2023/04/08 07:39:54;;;;;;;15.18;10.40;;;10.60;99.90;;;;;;5051889;28;20026;-74
2023/04/08 07:42:20;;;;;;;14.63;10.65;;;10.80;99.90;;;;;;5051806;28;20025;-75
2023/04/08 07:44:46;;;;;;;17.17;9.95;;;10.90;99.90;;;;;;5037227;28;20025;-74
2023/04/08 07:47:13;;;;;;;17.73;10.85;;;11.00;99.90;;;;;;5014593;28;20101;-75
2023/04/08 07:49:39;;;;;;;8.93;5.10;;;11.00;99.90;;;;;;5036899;28;20472;-74
2023/04/08 07:52:05;;;;;;;12.70;9.75;;;11.00;99.90;;;;;;5054277;28;20048;-75
2023/04/08 07:54:34;;;;;;;14.82;10.85;;;10.90;99.90;;;;;;5055251;28;20033;-75
2023/04/08 07:57:01;;;;;;;16.08;9.82;;;11.00;99.90;;;;;;5054393;28;20028;-74
2023/04/08 07:59:28;;;;;;;11.10;7.50;;;11.00;99.90;;;;;;5037210;28;20037;-74
2023/04/08 08:01:54;;;;;;;15.23;11.20;;;11.30;99.90;;;;;;5036616;28;20037;-76
2023/04/08 08:04:20;;;;;;;15.23;9.27;;;11.50;99.90;;;;;;5037605;28;20036;-74
2023/04/08 08:06:46;;;;;;;14.88;11.25;;;11.50;99.90;;;;;;5055239;28;20029;-74
2023/04/08 08:09:12;;;;;;;16.25;10.77;;;11.50;99.90;;;;;;5037441;28;20043;-75
2023/04/08 08:11:39;;;;;;;15.40;10.13;;;11.60;99.90;;;;;;5037023;28;20045;-74
2023/04/08 08:14:06;;;;;;;15.00;10.98;;;11.70;99.90;;;;;;5054100;28;20036;-74
2023/04/08 08:16:32;;;;;;;17.02;10.20;;;11.80;99.90;;;;;;5052633;28;20037;-74
2023/04/08 08:18:58;;;;;;;14.30;10.52;;;11.90;99.90;;;;;;5037359;28;20470;-74
2023/04/08 08:21:25;;;;;;;5.05;4.28;;;12.00;99.90;;;;;;5053666;28;20041;-74
2023/04/08 08:23:53;;;;;;;14.73;8.73;;;12.00;99.90;;;;;;5054950;28;20021;-74
2023/04/08 08:26:20;;;;;;;14.70;10.52;;;12.10;99.90;;;;;;5054712;28;20033;-74
2023/04/08 08:28:46;;;;;;;14.07;10.50;;;12.30;99.90;;;;;;5053780;28;20032;-74
2023/04/08 08:31:12;;;;;;;12.00;8.45;;;12.30;99.90;;;;;;5052844;28;20032;-74
2023/04/08 08:33:38;;;;;;;16.42;11.15;;;12.30;99.90;;;;;;5036367;28;20041;-74
2023/04/08 08:36:05;;;;;;;14.20;10.32;;;12.50;99.90;;;;;;5054829;28;20029;-74
2023/04/08 08:38:32;;;;;;;15.63;11.23;;;12.60;99.90;;;;;;5054736;28;20029;-74
2023/04/08 08:40:58;;;;;;;16.08;11.10;;;12.80;99.90;;;;;;5053466;28;20041;-74
2023/04/08 08:43:25;;;;;;;12.55;10.05;;;12.80;99.90;;;;;;5051279;28;20045;-74
2023/04/08 08:45:51;;;;;;;13.88;11.38;;;13.00;99.90;;;;;;5016174;28;20025;-75
2023/04/08 08:48:17;;;;;;;30.00;17.65;;;13.00;99.90;;;;;;5034416;28;20025;-74
2023/04/08 08:50:43;;;;;;;20.38;14.30;;;13.10;99.90;;;;;;5043128;28;20480;-73
2023/04/08 08:53:09;;;;;;;22.20;14.70;;;13.10;99.90;;;;;;5053206;28;20372;-74
2023/04/08 08:55:37;;;;;;;14.38;12.50;;;13.30;99.90;;;;;;5053091;28;20036;-74
2023/04/08 08:58:03;;;;;;;16.65;12.82;;;13.30;99.90;;;;;;5053171;28;20036;-75
2023/04/08 09:00:37;;;;;;;14.05;10.93;;;13.50;99.90;;;;;;5052800;28;20032;-74
2023/04/08 09:03:16;;;;;;;16.67;11.30;;;13.60;99.90;;;;;;5053056;28;20056;-74
2023/04/08 09:05:53;;;;;;;13.10;10.93;;;13.60;99.90;;;;;;5052507;28;20037;-74
2023/04/08 09:08:25;;;;;;;14.07;10.63;;;13.70;99.90;;;;;;5036895;28;20027;-75
2023/04/08 09:10:52;;;;;;;16.95;12.10;;;14.00;99.90;;;;;;5053984;28;20036;-74
2023/04/08 09:13:18;;;;;;;14.82;11.07;;;14.10;99.90;;;;;;5054113;28;20029;-75
2023/04/08 09:16:04;;;;;;;13.70;10.95;;;14.20;99.90;;;;;;5053232;28;20033;-75
2023/04/08 09:18:31;;;;;;;14.05;11.07;;;14.20;99.90;;;;;;5053831;28;20038;-75
2023/04/08 09:21:01;;;;;;;15.23;10.32;;;14.40;99.90;;;;;;5036143;28;20048;-75
2023/04/08 09:23:46;;;;;;;13.93;11.25;;;14.50;99.90;;;;;;5053624;28;20380;-74
2023/04/08 09:26:26;;;;;;;15.43;10.85;;;14.50;99.90;;;;;;5052446;28;20040;-75
2023/04/08 09:29:05;;;;;;;14.98;11.43;;;14.50;99.90;;;;;;5052386;28;20033;-74
2023/04/08 09:31:33;;;;;;;19.30;14.55;;;14.60;99.90;;;;;;5051938;28;20040;-75
2023/04/08 09:34:03;;;;;;;14.25;11.80;;;14.70;99.90;;;;;;5052496;28;20029;-75
2023/04/08 09:36:29;;;;;;;22.23;15.55;;;15.00;99.90;;;;;;5052430;28;20029;-74
2023/04/08 09:38:55;;;;;;;14.75;11.05;;;14.60;99.90;;;;;;5051705;28;20033;-74
2023/04/08 09:41:22;;;;;;;13.80;11.70;;;14.60;99.90;;;;;;5053352;28;20033;-75
2023/04/08 09:43:56;;;;;;;11.65;10.27;;;15.00;99.90;;;;;;5044915;28;20029;-74
2023/04/08 09:46:28;;;;;;;13.95;11.30;;;15.10;99.90;;;;;;5031812;28;20038;-74
2023/04/08 09:49:06;;;;;;;16.95;11.35;;;15.00;99.90;;;;;;5016044;28;20025;-74
2023/04/08 09:51:44;;;;;;;9.40;7.35;;;14.90;99.90;;;;;;5049101;28;20045;-74
2023/04/08 09:54:14;;;;;;;13.60;10.27;;;15.00;99.90;;;;;;5036082;28;20017;-75
2023/04/08 09:56:53;;;;;;;10.97;9.87;;;15.00;99.90;;;;;;5035573;28;20032;-74
2023/04/08 09:59:20;;;;;;;11.77;9.65;;;15.30;99.90;;;;;;5036958;28;20383;-74
2023/04/08 10:01:51;;;;;;;11.65;9.82;;;15.30;99.90;;;;;;5034938;28;20044;-74
2023/04/08 10:04:19;;;;;;;10.93;9.75;;;15.60;99.90;;;;;;5035548;28;20025;-74
2023/04/08 10:06:52;;;;;;;11.52;9.45;;;15.70;99.90;;;;;;5051902;28;20039;-74
2023/04/08 10:09:20;;;;;;;12.00;9.73;;;15.90;99.90;;;;;;5035885;28;20025;-74
2023/04/08 10:11:47;;;;;;;14.43;10.40;;;15.70;99.90;;;;;;5050771;28;20033;-74
2023/04/08 10:14:13;;;;;;;9.07;8.00;;;16.00;99.90;;;;;;5034845;28;20033;-74
2023/04/08 10:16:39;;;;;;;11.65;10.10;;;15.90;99.90;;;;;;5051242;28;20037;-74
2023/04/08 10:19:40;;;;;;;11.52;10.32;;;15.60;99.90;;;;;;5052710;28;20029;-75
2023/04/08 10:22:28;;;;;;;11.82;9.32;;;15.90;99.90;;;;;;5052728;28;20112;-74
2023/04/08 10:25:16;;;;;;;12.77;10.15;;;15.80;99.90;;;;;;5052621;28;20038;-74
2023/04/08 10:27:42;;;;;;;12.73;10.48;;;15.70;99.90;;;;;;5052381;28;20032;-75
2023/04/08 10:30:32;;;;;;;10.85;9.70;;;15.80;99.90;;;;;;5052209;28;20025;-75
2023/04/08 10:33:02;;;;;;;8.05;7.18;;;16.00;99.90;;;;;;5046105;28;20373;-74
2023/04/08 10:35:29;;;;;;;10.88;9.77;;;16.10;99.90;;;;;;5051119;28;20032;-74
2023/04/08 10:37:55;;;;;;;13.70;9.55;;;15.90;99.90;;;;;;5051323;28;20387;-74
2023/04/08 10:40:21;;;;;;;11.65;9.65;;;15.90;99.90;;;;;;5052340;28;20037;-74
2023/04/08 10:42:53;;;;;;;11.77;9.45;;;15.80;99.90;;;;;;5050159;28;20048;-75
2023/04/08 10:45:19;;;;;;;10.40;9.20;;;16.00;99.90;;;;;;5031782;28;20025;-74
2023/04/08 10:47:45;;;;;;;10.77;8.63;;;16.20;99.90;;;;;;5032345;28;20021;-75
2023/04/08 10:50:16;;;;;;;12.70;8.77;;;16.40;99.90;;;;;;5037223;28;20037;-74
2023/04/08 10:52:46;;;;;;;12.55;9.13;;;16.50;99.90;;;;;;5034300;28;20483;-75
2023/04/08 10:55:12;;;;;;;14.15;9.13;;;16.50;99.90;;;;;;5051108;28;20456;-74
2023/04/08 10:57:40;;;;;;;8.63;7.85;;;16.50;99.90;;;;;;5050774;28;20037;-74
2023/04/08 11:00:17;;;;;;;9.77;8.77;;;16.60;99.90;;;;;;5050546;28;20024;-75
2023/04/08 11:02:43;;;;;;;8.57;7.65;;;16.60;99.90;;;;;;5034701;28;20044;-74
2023/04/08 11:05:10;;;;;;;9.93;8.80;;;16.30;99.90;;;;;;5050901;28;20044;-74
2023/04/08 11:07:41;;;;;;;9.25;8.27;;;16.20;99.90;;;;;;5052025;28;20383;-75
2023/04/08 11:10:08;;;;;;;9.30;8.40;;;16.30;99.90;;;;;;5050931;28;20029;-75
2023/04/08 11:12:36;;;;;;;8.57;7.75;;;16.40;99.90;;;;;;5050555;28;20103;-74
2023/04/08 11:15:05;;;;;;;8.57;7.82;;;16.50;99.90;;;;;;5050830;28;20041;-75
2023/04/08 11:17:33;;;;;;;9.60;8.48;;;16.60;99.90;;;;;;5049999;28;20038;-74
2023/04/08 11:20:04;;;;;;;7.95;7.25;;;16.40;99.90;;;;;;5051033;28;20059;-74
2023/04/08 11:22:33;;;;;;;6.82;6.30;;;16.20;99.90;;;;;;5052045;28;20488;-75
2023/04/08 11:24:59;;;;;;;11.68;8.88;;;16.00;99.90;;;;;;5054467;28;20472;-75
2023/04/08 11:27:26;;;;;;;10.52;8.23;;;16.00;99.90;;;;;;5037878;28;20517;-74
2023/04/08 11:29:54;;;;;;;11.20;8.90;;;16.30;99.90;;;;;;5054825;28;20029;-74
2023/04/08 11:32:20;;;;;;;9.70;8.77;;;16.60;99.90;;;;;;5037891;28;20044;-75
2023/04/08 11:34:46;;;;;;;9.43;7.97;;;16.80;99.90;;;;;;5054563;28;20021;-74
2023/04/08 11:37:12;;;;;;;9.95;8.50;;;16.70;99.90;;;;;;5054619;28;20032;-75
2023/04/08 11:39:42;;;;;;;11.57;9.30;;;16.80;99.90;;;;;;5037810;28;20507;-75
2023/04/08 11:42:08;;;;;;;8.80;7.90;;;17.00;99.90;;;;;;5037990;28;20048;-74
2023/04/08 11:44:34;;;;;;;8.95;8.13;;;17.10;99.90;;;;;;5041811;28;20037;-75
2023/04/08 11:47:01;;;;;;;8.95;8.05;;;17.00;99.90;;;;;;5034090;28;20037;-75
2023/04/08 11:49:27;;;;;;;9.75;8.85;;;16.90;99.90;;;;;;5035684;28;20025;-74
2023/04/08 11:51:55;;;;;;;9.65;8.65;;;16.80;99.90;;;;;;5034392;28;20064;-74
2023/04/08 11:54:31;;;;;;;8.98;8.15;;;16.90;99.90;;;;;;5017768;28;20029;-74
2023/04/08 11:56:58;;;;;;;9.38;8.32;;;16.70;99.90;;;;;;5017463;28;20037;-74
2023/04/08 11:59:24;;;;;;;8.80;8.00;;;16.30;99.90;;;;;;5034270;28;20040;-74
2023/04/08 12:01:51;;;;;;;7.32;6.63;;;16.40;99.90;;;;;;5033745;28;20046;-74
2023/04/08 12:04:17;;;;;;;9.35;7.38;;;16.40;99.90;;;;;;5034129;28;20026;-75
2023/04/08 12:06:45;;;;;;;9.20;8.43;;;16.40;99.90;;;;;;5034250;28;20033;-74
2023/04/08 12:09:12;;;;;;;9.05;7.25;;;16.50;99.90;;;;;;5034941;28;20029;-75
2023/04/08 12:11:38;;;;;;;10.73;7.40;;;16.50;99.90;;;;;;5034010;28;20025;-74
2023/04/08 12:14:04;;;;;;;8.13;7.43;;;16.70;99.90;;;;;;5035177;28;20026;-74
2023/04/08 12:16:30;;;;;;;8.23;7.28;;;16.80;99.90;;;;;;5033522;28;20480;-74
2023/04/08 12:18:57;;;;;;;5.97;5.55;;;17.00;99.90;;;;;;5033909;28;20045;-74
2023/04/08 12:21:23;;;;;;;8.07;7.28;;;16.80;99.90;;;;;;5033914;28;20068;-74
2023/04/08 12:23:49;;;;;;;10.40;8.15;;;16.80;99.90;;;;;;5034628;28;20029;-74
2023/04/08 12:26:15;;;;;;;8.18;6.75;;;16.80;99.90;;;;;;5037818;28;20037;-74
2023/04/08 12:28:41;;;;;;;8.57;7.82;;;16.90;99.90;;;;;;5054958;28;20029;-75
2023/04/08 12:31:07;;;;;;;8.90;8.00;;;17.00;99.90;;;;;;5053105;28;20029;-74
2023/04/08 12:33:33;;;;;;;8.30;7.50;;;17.20;99.90;;;;;;5052832;28;20080;-74
2023/04/08 12:35:59;;;;;;;7.35;6.75;;;17.20;99.90;;;;;;5054444;28;20037;-75
2023/04/08 12:38:26;;;;;;;6.43;5.72;;;17.20;99.90;;;;;;5054351;28;20040;-74
2023/04/08 12:40:52;;;;;;;8.13;7.30;;;16.90;99.90;;;;;;5054499;28;20048;-74
2023/04/08 12:43:18;;;;;;;8.05;7.20;;;16.80;99.90;;;;;;5053324;28;20029;-75
2023/04/08 12:45:44;;;;;;;7.85;7.18;;;17.10;99.90;;;;;;5052909;28;20048;-74